createdAt,value
2022-11-24T00:01:30.720Z,13.1
2022-11-24T00:04:32.997Z,11.7
2022-11-24T00:07:34.712Z,9.6
2022-11-24T00:10:36.655Z,9.4
2022-11-24T00:13:38.620Z,10.2
2022-11-24T00:16:40.610Z,7.5
2022-11-24T00:19:42.486Z,9.4
2022-11-24T00:22:44.447Z,7.7
2022-11-24T00:25:46.404Z,10.7
2022-11-24T00:28:48.366Z,10.6
2022-11-24T00:31:50.344Z,8.7
2022-11-24T00:34:52.295Z,13.3
2022-11-24T00:37:54.258Z,11.6
2022-11-24T00:40:56.219Z,13.1
2022-11-24T00:43:58.170Z,8.1
2022-11-24T00:47:00.263Z,12.2
2022-11-24T00:50:02.202Z,11.3
2022-11-24T00:53:04.153Z,16.9
2022-11-24T00:56:06.077Z,15.2
2022-11-24T00:59:08.032Z,14.4
2022-11-24T01:02:10.252Z,11.7
2022-11-24T01:05:11.986Z,13.2
2022-11-24T01:08:13.919Z,14.7
2022-11-24T01:11:15.921Z,11.3
2022-11-24T01:14:17.869Z,10.3
2022-11-24T01:17:19.794Z,12.5
2022-11-24T01:20:21.760Z,12.5
2022-11-24T01:23:23.707Z,14.6
2022-11-24T01:26:25.673Z,12.3
2022-11-24T01:29:27.629Z,7.3
2022-11-24T01:32:29.597Z,11.5
2022-11-24T01:35:31.558Z,10.8
2022-11-24T01:38:33.523Z,16.4
2022-11-24T01:41:35.536Z,11.2
2022-11-24T01:44:37.477Z,13.3
2022-11-24T01:47:39.445Z,14.8
2022-11-24T01:50:41.402Z,13.6
2022-11-24T01:53:43.359Z,20
2022-11-24T01:56:45.302Z,14.6
2022-11-24T01:59:47.246Z,16.9
2022-11-24T02:02:49.262Z,9.6
2022-11-24T02:05:51.179Z,12.7
2022-11-24T02:08:53.135Z,10.3
2022-11-24T02:11:55.101Z,14.2
2022-11-24T02:14:57.055Z,13.1
2022-11-24T02:17:59.025Z,11.7
2022-11-24T02:21:00.975Z,13.2
2022-11-24T02:24:02.968Z,13.7
2022-11-24T02:27:04.936Z,14.5
2022-11-24T02:30:06.868Z,11.5
2022-11-24T02:33:08.831Z,17.1
2022-11-24T02:36:10.810Z,10.8
2022-11-24T02:39:12.745Z,13
2022-11-24T02:42:14.727Z,16.5
2022-11-24T02:45:16.709Z,12.8
2022-11-24T02:48:18.637Z,12.4
2022-11-24T02:51:20.583Z,13.6
2022-11-24T02:54:22.551Z,12.1
2022-11-24T02:57:24.539Z,11.8
2022-11-24T03:00:26.516Z,15.3
2022-11-24T03:03:28.462Z,9.2
2022-11-24T03:06:30.457Z,9.2
2022-11-24T03:09:32.379Z,13.8
2022-11-24T03:12:34.393Z,10.2
2022-11-24T03:15:36.396Z,11.5
2022-11-24T03:18:38.327Z,12.6
2022-11-24T03:21:40.273Z,16.1
2022-11-24T03:24:42.210Z,15.5
2022-11-24T03:27:44.173Z,10.9
2022-11-24T03:30:46.177Z,15.7
2022-11-24T03:33:48.088Z,13.5
2022-11-24T03:36:50.064Z,14.2
2022-11-24T03:39:52.031Z,16
2022-11-24T03:42:54.083Z,12.4
2022-11-24T03:45:56.008Z,11.4
2022-11-24T03:48:57.916Z,16.4
2022-11-24T03:52:03.822Z,12.7
2022-11-24T03:55:01.846Z,18.6
2022-11-24T03:58:03.869Z,14.6
2022-11-24T04:01:05.833Z,18.8
2022-11-24T04:04:07.779Z,12.1
2022-11-24T04:07:09.803Z,14.9
2022-11-24T04:10:11.689Z,18.7
2022-11-24T04:13:13.701Z,14.1
2022-11-24T04:16:15.693Z,16.6
2022-11-24T04:19:17.622Z,18
2022-11-24T04:22:19.556Z,17.4
2022-11-24T04:25:21.525Z,15.9
2022-11-24T04:28:23.510Z,13
2022-11-24T04:31:25.540Z,11.1
2022-11-24T04:34:27.415Z,11.3
2022-11-24T04:37:29.368Z,13.6
2022-11-24T04:40:31.325Z,17.8
2022-11-24T04:43:37.798Z,14.3
2022-11-24T04:46:35.302Z,13.5
2022-11-24T04:49:37.271Z,14
2022-11-24T04:52:39.260Z,10.7
2022-11-24T04:55:41.181Z,12.2
2022-11-24T04:58:43.180Z,16.3
2022-11-24T05:01:45.243Z,18.4
2022-11-24T05:04:47.164Z,10.8
2022-11-24T05:07:49.158Z,9.4
2022-11-24T05:10:51.035Z,20
2022-11-24T05:13:53.001Z,17.7
2022-11-24T05:16:54.988Z,16.9
2022-11-24T05:19:56.961Z,14.5
2022-11-24T05:22:58.897Z,11.7
2022-11-24T05:26:00.888Z,11.2
2022-11-24T05:29:02.845Z,15.3
2022-11-24T05:32:04.834Z,16.1
2022-11-24T05:35:06.765Z,12.3
2022-11-24T05:38:08.754Z,15.4
2022-11-24T05:41:10.704Z,15
2022-11-24T05:44:12.694Z,13
2022-11-24T05:47:14.623Z,12.2
2022-11-24T05:50:16.578Z,18.8
2022-11-24T05:53:18.536Z,13.2
2022-11-24T05:56:20.483Z,12.7
2022-11-24T05:59:22.471Z,19.7
2022-11-24T06:02:24.508Z,15.3
2022-11-24T06:05:26.361Z,13.2
2022-11-24T06:08:31.171Z,11.3
2022-11-24T06:11:30.307Z,18.6
2022-11-24T06:14:32.516Z,16.7
2022-11-24T06:17:34.229Z,15.6
2022-11-24T06:20:36.170Z,15.4
2022-11-24T06:23:38.124Z,20.6
2022-11-24T06:26:40.268Z,13.1
2022-11-24T06:29:42.052Z,10.3
2022-11-24T06:32:49.047Z,18
2022-11-24T06:35:46.032Z,16.6
2022-11-24T06:38:48.009Z,19.5
2022-11-24T06:41:49.963Z,14.8
2022-11-24T06:44:51.928Z,17.4
2022-11-24T06:47:53.913Z,12.3
2022-11-24T06:50:55.908Z,13.9
2022-11-24T06:53:57.839Z,18.7
2022-11-24T06:56:59.825Z,22
2022-11-24T07:00:01.820Z,15.7
2022-11-24T07:03:03.834Z,14.3
2022-11-24T07:06:05.728Z,14.8
2022-11-24T07:09:07.724Z,17.1
2022-11-24T07:12:09.658Z,12.6
2022-11-24T07:15:11.661Z,13.8
2022-11-24T07:18:13.597Z,13.8
2022-11-24T07:21:15.588Z,16.6
2022-11-24T07:24:17.539Z,10.5
2022-11-24T07:27:19.507Z,9.7
2022-11-24T07:30:21.463Z,14.6
2022-11-24T07:33:23.421Z,12.9
2022-11-24T07:36:25.393Z,22.5
2022-11-24T07:39:27.324Z,17.4
2022-11-24T07:42:29.303Z,18.8
2022-11-24T07:45:31.290Z,13.4
2022-11-24T07:48:33.218Z,11.6
2022-11-24T07:51:35.227Z,19.7
2022-11-24T07:54:37.277Z,12.1
2022-11-24T07:57:39.128Z,10.9
2022-11-24T08:00:41.096Z,14.5
2022-11-24T08:03:43.271Z,14.8
2022-11-24T08:06:47.433Z,19.1
2022-11-24T08:09:46.980Z,19
2022-11-24T08:12:48.955Z,13.9
2022-11-24T08:15:50.967Z,18.6
2022-11-24T08:18:52.923Z,14.9
2022-11-24T08:21:54.881Z,11.4
2022-11-24T08:24:56.853Z,16.4
2022-11-24T08:27:58.839Z,16
2022-11-24T08:31:00.798Z,10.3
2022-11-24T08:34:02.757Z,9.5
2022-11-24T08:37:04.706Z,14.6
2022-11-24T08:40:06.694Z,11.2
2022-11-24T08:43:08.891Z,12.4
2022-11-24T08:46:10.675Z,15
2022-11-24T08:49:12.591Z,10.9
2022-11-24T08:52:14.554Z,12.5
2022-11-24T08:55:16.547Z,15.6
2022-11-24T08:58:18.520Z,18.2
2022-11-24T09:01:20.613Z,18.2
2022-11-24T09:04:22.509Z,11.7
2022-11-24T09:07:24.456Z,10.9
2022-11-24T09:10:26.379Z,13.3
2022-11-24T09:13:28.347Z,9.8
2022-11-24T09:16:30.412Z,12.6
2022-11-24T09:19:32.656Z,12
2022-11-24T09:22:34.240Z,10.8
2022-11-24T09:25:36.298Z,9.8
2022-11-24T09:28:38.266Z,6.6
2022-11-24T09:31:40.217Z,8.9
2022-11-24T09:34:42.172Z,11.1
2022-11-24T09:37:44.112Z,9.7
2022-11-24T09:40:46.080Z,8.3
2022-11-24T09:43:48.039Z,11.7
2022-11-24T09:46:50.049Z,10.5
2022-11-24T09:49:52.009Z,8.9
2022-11-24T09:52:53.967Z,9.3
2022-11-24T09:55:56.084Z,7.8
2022-11-24T09:58:57.888Z,9.1
2022-11-24T10:01:59.896Z,7.7
2022-11-24T10:05:01.851Z,8.3
2022-11-24T10:08:03.812Z,10.4
2022-11-24T10:11:05.797Z,10.9
2022-11-24T10:14:07.781Z,8.6
2022-11-24T10:17:09.701Z,10.7
2022-11-24T10:20:11.666Z,7.2
2022-11-24T10:23:13.625Z,9.4
2022-11-24T10:26:15.589Z,11.7
2022-11-24T10:29:17.567Z,12.8
2022-11-24T10:32:19.519Z,6.6
2022-11-24T10:35:21.488Z,6.4
2022-11-24T10:38:23.476Z,7.2
2022-11-24T10:41:25.440Z,6.5
2022-11-24T10:44:27.564Z,6.6
2022-11-24T10:47:29.395Z,7.6
2022-11-24T10:50:31.318Z,8.3
2022-11-24T10:53:33.276Z,9.7
2022-11-24T10:56:35.241Z,8.4
2022-11-24T10:59:37.703Z,11.3
2022-11-24T11:02:39.374Z,8.8
2022-11-24T11:05:41.202Z,8.4
2022-11-24T11:08:43.262Z,9.9
2022-11-24T11:11:45.226Z,9.3
2022-11-24T11:14:47.208Z,4.1
2022-11-24T11:17:49.117Z,4.6
2022-11-24T11:20:51.102Z,8.9
2022-11-24T11:23:53.070Z,8.1
2022-11-24T11:26:55.032Z,9.2
2022-11-24T11:36:00.925Z,8.4
2022-11-24T11:39:02.888Z,8
2022-11-24T11:42:04.847Z,9.8
2022-11-24T11:45:06.831Z,7.4
2022-11-24T11:48:08.830Z,8.1
2022-11-24T11:51:23.556Z,6.6
2022-11-24T11:54:12.730Z,11.4
2022-11-24T11:57:14.716Z,7.3
2022-11-24T12:00:16.693Z,5.5
2022-11-24T12:03:18.790Z,6.4
2022-11-24T12:06:20.579Z,5.5
2022-11-24T12:09:22.576Z,9
2022-11-24T12:12:24.605Z,7.3
2022-11-24T12:15:26.502Z,4.7
2022-11-24T12:18:55.609Z,7.1
2022-11-24T12:21:30.454Z,8.2
2022-11-24T12:24:32.456Z,12.8
2022-11-24T12:27:34.357Z,6.7
2022-11-24T12:30:36.345Z,5.6
2022-11-24T12:33:38.300Z,4
2022-11-24T12:36:40.264Z,6.8
2022-11-24T12:39:42.335Z,7.3
2022-11-24T12:42:44.225Z,7.9
2022-11-24T12:45:46.185Z,7
2022-11-24T12:48:48.133Z,5.4
2022-11-24T12:51:50.109Z,8.1
2022-11-24T12:54:52.069Z,7.2
2022-11-24T12:57:54.040Z,6.5
2022-11-24T13:00:55.997Z,6.8
2022-11-24T13:03:57.958Z,4.5
2022-11-24T13:06:59.905Z,9
2022-11-24T13:10:01.882Z,6.3
2022-11-24T13:13:03.824Z,3.7
2022-11-24T13:16:59.203Z,6.6
2022-11-24T13:19:07.780Z,5.7
2022-11-24T13:22:09.713Z,5.8
2022-11-24T13:25:11.678Z,7.4
2022-11-24T13:28:14.112Z,8.1
2022-11-24T13:31:15.678Z,5
2022-11-24T13:34:17.578Z,7.1
2022-11-24T13:37:27.083Z,3.7
2022-11-24T13:40:21.507Z,7.4
2022-11-24T13:43:23.488Z,5.4
2022-11-24T13:46:25.510Z,4.2
2022-11-24T13:49:27.441Z,7.5
2022-11-24T13:52:29.396Z,5.7
2022-11-24T13:55:31.348Z,6.7
2022-11-24T13:58:33.317Z,3.8
2022-11-24T14:01:35.320Z,9.4
2022-11-24T14:04:37.259Z,5.4
2022-11-24T14:07:39.254Z,6.5
2022-11-24T14:10:41.199Z,4.4
2022-11-24T14:13:43.130Z,5
2022-11-24T14:16:45.165Z,4.5
2022-11-24T14:19:47.058Z,8.4
2022-11-24T14:22:49.034Z,6.4
2022-11-24T14:25:51.031Z,5.4
2022-11-24T14:28:53.002Z,6.6
2022-11-24T14:31:54.924Z,7.2
2022-11-24T14:34:57.072Z,6.9
2022-11-24T14:37:58.837Z,5.7
2022-11-24T14:41:00.840Z,7.2
2022-11-24T14:44:02.792Z,5.2
2022-11-24T14:47:04.860Z,3.1
2022-11-24T14:50:06.853Z,3.9
2022-11-24T14:53:08.717Z,7.4
2022-11-24T14:56:10.772Z,7.1
2022-11-24T14:59:12.677Z,6.2
2022-11-24T15:02:14.710Z,4.7
2022-11-24T15:05:16.600Z,5
2022-11-24T15:08:18.561Z,6.2
2022-11-24T15:11:20.579Z,6.4
2022-11-24T15:14:22.581Z,6.1
2022-11-24T15:17:24.553Z,5.5
2022-11-24T15:20:26.451Z,20.4
2022-11-24T15:23:28.439Z,10.1
2022-11-24T15:26:32.174Z,9.4
2022-11-24T15:29:32.367Z,10.1
2022-11-24T15:32:34.329Z,9.5
2022-11-24T15:35:36.291Z,7.6
2022-11-24T15:38:38.236Z,9.5
2022-11-24T15:41:40.203Z,8.2
2022-11-24T15:44:42.176Z,8.8
2022-11-24T15:47:44.175Z,15
2022-11-24T15:50:46.139Z,8.6
2022-11-24T15:53:48.083Z,7.6
2022-11-24T15:56:50.032Z,9
2022-11-24T15:59:52.023Z,10.4
2022-11-24T16:02:53.945Z,11.8
2022-11-24T16:05:55.908Z,8.6
2022-11-24T16:08:57.853Z,9.6
2022-11-24T16:11:59.821Z,8.5
2022-11-24T16:15:01.777Z,11.9
2022-11-24T16:18:03.782Z,9.7
2022-11-24T16:21:05.755Z,10.1
2022-11-24T16:24:07.739Z,11.7
2022-11-24T16:27:09.721Z,8.2
2022-11-24T16:30:11.657Z,8.7
2022-11-24T16:33:13.639Z,12.8
2022-11-24T16:36:15.616Z,20.8
2022-11-24T16:39:17.538Z,9.4
2022-11-24T16:42:19.539Z,10
2022-11-24T16:45:21.517Z,9.6
2022-11-24T16:48:23.480Z,9.2
2022-11-24T16:51:27.757Z,8.3
2022-11-24T16:54:27.382Z,7
2022-11-24T16:57:29.312Z,9.9
2022-11-24T17:00:31.321Z,7.7
2022-11-24T17:03:33.238Z,13.3
2022-11-24T17:06:35.213Z,7.9
2022-11-24T17:09:40.463Z,6.5
2022-11-24T17:12:39.173Z,10.4
2022-11-24T17:15:46.285Z,8
2022-11-24T17:18:43.140Z,9.6
2022-11-24T17:21:45.116Z,7.8
2022-11-24T17:24:47.077Z,10.3
2022-11-24T17:27:49.045Z,9
2022-11-24T17:30:51.011Z,8
2022-11-24T17:33:52.988Z,10.1
2022-11-24T17:36:54.927Z,11.4
2022-11-24T17:40:20.564Z,8.3
2022-11-24T17:42:58.875Z,9.5
2022-11-24T17:46:00.907Z,10.1
2022-11-24T17:49:02.793Z,14.5
2022-11-24T17:52:04.761Z,9.9
2022-11-24T17:55:06.743Z,12.1
2022-11-24T17:58:08.682Z,9.4
2022-11-24T18:01:10.834Z,7.9
2022-11-24T18:04:12.622Z,8.1
2022-11-24T18:07:14.687Z,7.6
2022-11-24T18:10:16.558Z,9.5
2022-11-24T18:13:40.951Z,8.3
2022-11-24T18:16:20.527Z,9.8
2022-11-24T18:19:22.504Z,10.1
2022-11-24T18:22:43.287Z,11
2022-11-24T18:25:26.405Z,8.4
2022-11-24T18:28:28.377Z,8.8
2022-11-24T18:31:30.337Z,8.4
2022-11-24T18:34:32.357Z,10.1
2022-11-24T18:37:34.233Z,8.2
2022-11-24T18:40:36.208Z,17.8
2022-11-24T18:43:38.145Z,14.7
2022-11-24T18:46:40.136Z,9.3
2022-11-24T18:49:42.241Z,15.7
2022-11-24T18:52:44.088Z,13.2
2022-11-24T18:55:46.016Z,11.7
2022-11-24T18:58:48.012Z,10.5
2022-11-24T19:01:50.097Z,15.8
2022-11-24T19:04:51.980Z,13
2022-11-24T19:07:53.905Z,13.9
2022-11-24T19:10:55.802Z,7.6
2022-11-24T19:14:00.764Z,9.8
2022-11-24T19:17:02.831Z,14
2022-11-24T19:20:04.718Z,10.4
2022-11-24T19:23:06.687Z,12.2
2022-11-24T19:26:08.651Z,8.5
2022-11-24T19:29:10.624Z,7.9
2022-11-24T19:32:12.613Z,9.1
2022-11-24T19:35:14.568Z,8.5
2022-11-24T19:38:16.497Z,7.7
2022-11-24T19:41:18.449Z,12.3
2022-11-24T19:44:20.418Z,16.1
2022-11-24T19:47:22.409Z,12.9
2022-11-24T19:50:24.340Z,10.9
2022-11-24T19:53:26.308Z,12.6
2022-11-24T19:56:28.301Z,10.7
2022-11-24T19:59:30.266Z,11
2022-11-24T20:02:32.259Z,13.2
2022-11-24T20:05:34.160Z,10.4
2022-11-24T20:08:36.131Z,12.5
2022-11-24T20:11:38.090Z,10.6
2022-11-24T20:14:40.202Z,9.7
2022-11-24T20:17:42.325Z,16.6
2022-11-24T20:20:44.000Z,15.2
2022-11-24T20:23:45.948Z,14.1
2022-11-24T20:26:47.959Z,11.7
2022-11-24T20:29:49.904Z,12.7
2022-11-24T20:32:51.873Z,15
2022-11-24T20:35:53.844Z,11
2022-11-24T20:38:55.805Z,10.5
2022-11-24T20:41:57.793Z,10.9
2022-11-24T20:44:59.721Z,13.1
2022-11-24T20:48:01.680Z,11.7
2022-11-24T20:51:03.642Z,11.5
2022-11-24T20:54:05.626Z,9.3
2022-11-24T20:57:07.565Z,13.8
2022-11-24T21:00:09.533Z,13.7
2022-11-24T21:03:11.485Z,15.1
2022-11-24T21:06:13.460Z,13
2022-11-24T21:09:15.553Z,16.2
2022-11-24T21:12:17.393Z,14
2022-11-24T21:15:19.382Z,18
2022-11-24T21:18:21.318Z,15.3
2022-11-24T21:21:23.285Z,13.9
2022-11-24T21:24:25.249Z,17.7
2022-11-24T21:27:27.229Z,18.7
2022-11-24T21:30:29.176Z,20.6
2022-11-24T21:33:31.156Z,15.3
2022-11-24T21:36:33.141Z,19.9
2022-11-24T21:39:35.199Z,18
2022-11-24T21:42:37.138Z,17.3
2022-11-24T21:45:39.193Z,15.6
2022-11-24T21:48:41.035Z,21.4
2022-11-24T21:51:43.129Z,18
2022-11-24T21:54:45.004Z,16.9
2022-11-24T21:57:46.996Z,18.6
2022-11-24T22:00:48.959Z,17.2
2022-11-24T22:03:50.892Z,16.6
2022-11-24T22:06:52.846Z,14.3
2022-11-24T22:09:54.866Z,19.4
2022-11-24T22:12:56.775Z,21.2
2022-11-24T22:15:58.803Z,18.3
2022-11-24T22:19:00.705Z,17.9
2022-11-24T22:22:02.668Z,14.7
2022-11-24T22:25:04.632Z,20.4
2022-11-24T22:28:06.584Z,21.8
2022-11-24T22:31:08.581Z,17.3
2022-11-24T22:34:10.559Z,26.9
2022-11-24T22:37:12.519Z,17.2
2022-11-24T22:40:14.479Z,18.3
2022-11-24T22:43:20.178Z,16
2022-11-24T22:46:18.446Z,14.6
2022-11-24T22:49:20.337Z,21.1
2022-11-24T22:52:22.322Z,18.3
2022-11-24T22:55:24.317Z,19.6
2022-11-24T22:58:26.250Z,20.5
2022-11-24T23:01:28.255Z,21.8
2022-11-24T23:04:30.251Z,19.8
2022-11-24T23:07:32.182Z,20.9
2022-11-24T23:10:34.097Z,21.6
2022-11-24T23:13:36.047Z,19.5
2022-11-24T23:16:38.084Z,19.8
2022-11-24T23:19:40.012Z,20.7
2022-11-24T23:22:41.973Z,20.4
2022-11-24T23:25:43.936Z,22.8
2022-11-24T23:28:45.918Z,17.7
2022-11-24T23:31:47.939Z,20.6
2022-11-24T23:34:49.873Z,21.3
2022-11-24T23:38:06.869Z,20.3
2022-11-24T23:40:53.760Z,21.2
2022-11-24T23:43:55.711Z,19.8
2022-11-24T23:46:57.748Z,18.4
2022-11-24T23:49:59.712Z,25.6
2022-11-24T23:53:01.632Z,19.3
2022-11-24T23:56:03.580Z,22.4
2022-11-24T23:59:05.569Z,19.4
